Time,TemperatureF,DewpointF,PressureIn,WindDirection,WindDirectionDegrees,WindSpeedMPH,WindSpeedGustMPH,Humidity,HourlyPrecipIn,Conditions,Clouds,dailyrainin,SolarRadiationWatts/m^2,SoftwareType,DateUTC
2013-07-30 00:13:00,59.0,35.0,-100.00,SSE,148,2.0,6.0,40,0.00,,,0.00,0.000000,,2013-07-30 07:13:00,
2013-07-30 00:22:00,59.0,35.0,-100.00,SSE,148,2.0,6.0,40,0.00,,,0.00,0.000000,,2013-07-30 07:22:00,
2013-07-30 00:33:00,59.0,35.0,-100.00,SSE,148,2.0,6.0,40,0.00,,,0.00,0.000000,,2013-07-30 07:33:00,
2013-07-30 00:43:00,59.0,35.0,-100.00,SSE,148,2.0,6.0,40,0.00,,,0.00,0.000000,,2013-07-30 07:43:00,
2013-07-30 01:22:00,58.0,36.0,-100.00,SE,146,3.0,8.0,44,0.00,,,0.00,0.000000,,2013-07-30 08:22:00,
2013-07-30 01:32:00,58.0,36.0,-100.00,SE,146,3.0,8.0,44,0.00,,,0.00,0.000000,,2013-07-30 08:32:00,
2013-07-30 01:42:00,58.0,36.0,-100.00,SE,146,3.0,8.0,44,0.00,,,0.00,0.000000,,2013-07-30 08:42:00,
2013-07-30 02:22:00,56.0,38.0,-100.00,SE,144,1.0,6.0,50,0.00,,,0.00,0.000000,,2013-07-30 09:22:00,
2013-07-30 03:12:00,54.0,38.0,-100.00,ESE,116,0.0,7.0,54,0.00,,,0.00,0.000000,,2013-07-30 10:12:00,
2013-07-30 03:22:00,54.0,38.0,-100.00,ESE,116,0.0,7.0,54,0.00,,,0.00,0.000000,,2013-07-30 10:22:00,
2013-07-30 03:32:00,54.0,38.0,-100.00,ESE,116,0.0,7.0,54,0.00,,,0.00,0.000000,,2013-07-30 10:32:00,
2013-07-30 03:43:00,54.0,38.0,-100.00,ESE,116,0.0,7.0,54,0.00,,,0.00,0.000000,,2013-07-30 10:43:00,
2013-07-30 04:11:00,52.0,37.0,-100.00,SW,228,0.0,0.0,57,0.00,,,0.00,0.000000,,2013-07-30 11:11:00,
2013-07-30 04:22:00,52.0,37.0,-100.00,SW,228,0.0,0.0,57,0.00,,,0.00,0.000000,,2013-07-30 11:22:00,
2013-07-30 04:33:00,52.0,37.0,-100.00,SW,228,0.0,0.0,57,0.00,,,0.00,0.000000,,2013-07-30 11:33:00,
2013-07-30 04:43:00,52.0,37.0,-100.00,SW,228,0.0,0.0,57,0.00,,,0.00,0.000000,,2013-07-30 11:43:00,
2013-07-30 05:12:00,51.0,38.0,-100.00,SSW,193,0.0,2.0,60,0.00,,,0.00,0.000000,,2013-07-30 12:12:00,
2013-07-30 05:22:00,51.0,38.0,-100.00,SSW,193,0.0,2.0,60,0.00,,,0.00,0.000000,,2013-07-30 12:22:00,
2013-07-30 05:33:00,51.0,38.0,-100.00,SSW,193,0.0,2.0,60,0.00,,,0.00,0.000000,,2013-07-30 12:33:00,
2013-07-30 05:42:00,51.0,38.0,-100.00,SSW,193,0.0,2.0,60,0.00,,,0.00,0.000000,,2013-07-30 12:42:00,
2013-07-30 06:12:00,49.0,38.0,-100.00,ENE,73,0.0,0.0,65,0.00,,,0.00,0.000000,,2013-07-30 13:12:00,
2013-07-30 06:22:00,49.0,38.0,-100.00,ENE,73,0.0,0.0,65,0.00,,,0.00,0.000000,,2013-07-30 13:22:00,
2013-07-30 07:22:00,49.0,39.0,-100.00,SW,228,0.0,0.0,67,0.00,,,0.00,10.000000,,2013-07-30 14:22:00,
2013-07-30 07:32:00,49.0,39.0,-100.00,SW,228,0.0,0.0,67,0.00,,,0.00,10.000000,,2013-07-30 14:32:00,
2013-07-30 07:43:00,49.0,39.0,-100.00,SW,228,0.0,0.0,67,0.00,,,0.00,10.000000,,2013-07-30 14:43:00,
2013-07-30 08:12:00,54.0,38.0,-100.00,SSW,205,0.0,0.0,55,0.00,,,0.00,31.000000,,2013-07-30 15:12:00,
2013-07-30 08:22:00,54.0,38.0,-100.00,SSW,205,0.0,0.0,55,0.00,,,0.00,31.000000,,2013-07-30 15:22:00,
2013-07-30 09:22:00,71.0,41.0,-100.00,NE,35,0.0,5.0,34,-99.99,,,0.00,273.000000,,2013-07-30 16:22:00,
2013-07-30 09:33:00,71.0,41.0,-100.00,NE,35,0.0,5.0,34,-99.99,,,0.00,273.000000,,2013-07-30 16:33:00,
2013-07-30 09:43:00,71.0,41.0,-100.00,NE,35,0.0,5.0,34,-99.99,,,0.00,273.000000,,2013-07-30 16:43:00,
2013-07-30 10:22:00,73.0,34.0,-100.00,WSW,245,7.0,16.0,24,0.00,,,0.00,721.000000,,2013-07-30 17:22:00,
2013-07-30 10:32:00,73.0,34.0,-100.00,WSW,245,7.0,16.0,24,0.00,,,0.00,721.000000,,2013-07-30 17:32:00,
2013-07-30 10:43:00,73.0,34.0,-100.00,WSW,245,7.0,16.0,24,0.00,,,0.00,721.000000,,2013-07-30 17:43:00,
2013-07-30 11:12:00,78.0,35.0,-100.00,WSW,252,7.0,18.0,21,0.00,,,0.00,922.000000,,2013-07-30 18:12:00,
2013-07-30 11:22:00,78.0,35.0,-100.00,WSW,252,7.0,18.0,21,0.00,,,0.00,922.000000,,2013-07-30 18:22:00,
2013-07-30 11:32:00,78.0,35.0,-100.00,WSW,252,7.0,18.0,21,0.00,,,0.00,922.000000,,2013-07-30 18:32:00,
2013-07-30 11:42:00,78.0,35.0,-100.00,WSW,252,7.0,18.0,21,0.00,,,0.00,922.000000,,2013-07-30 18:42:00,
2013-07-30 12:22:00,78.0,28.0,-100.00,West,261,9.0,18.0,16,0.00,,,0.00,1076.000000,,2013-07-30 19:22:00,
2013-07-30 12:33:00,78.0,28.0,-100.00,West,261,9.0,18.0,16,0.00,,,0.00,1076.000000,,2013-07-30 19:33:00,
2013-07-30 12:43:00,78.0,28.0,-100.00,West,261,9.0,18.0,16,0.00,,,0.00,1076.000000,,2013-07-30 19:43:00,
2013-07-30 13:12:00,81.0,26.0,-100.00,WSW,252,9.0,19.0,13,0.00,,,0.00,1165.000000,,2013-07-30 20:12:00,
2013-07-30 13:22:00,81.0,26.0,-100.00,WSW,252,9.0,19.0,13,0.00,,,0.00,1165.000000,,2013-07-30 20:22:00,
2013-07-30 13:32:00,81.0,26.0,-100.00,WSW,252,9.0,19.0,13,0.00,,,0.00,1165.000000,,2013-07-30 20:32:00,
2013-07-30 13:43:00,81.0,26.0,-100.00,WSW,252,9.0,19.0,13,0.00,,,0.00,1165.000000,,2013-07-30 20:43:00,
2013-07-30 14:12:00,84.0,31.0,-100.00,West,267,8.0,20.0,15,0.00,,,0.00,1175.000000,,2013-07-30 21:12:00,
2013-07-30 14:22:00,84.0,31.0,-100.00,West,267,8.0,20.0,15,0.00,,,0.00,1175.000000,,2013-07-30 21:22:00,
2013-07-30 14:32:00,84.0,31.0,-100.00,West,267,8.0,20.0,15,0.00,,,0.00,1175.000000,,2013-07-30 21:32:00,
2013-07-30 14:42:00,84.0,31.0,-100.00,West,267,8.0,20.0,15,0.00,,,0.00,1175.000000,,2013-07-30 21:42:00,
2013-07-30 15:22:00,83.0,34.0,-100.00,WSW,248,10.0,21.0,17,0.00,,,0.00,1120.000000,,2013-07-30 22:22:00,
2013-07-30 15:32:00,83.0,34.0,-100.00,WSW,248,10.0,21.0,17,0.00,,,0.00,1120.000000,,2013-07-30 22:32:00,
2013-07-30 15:43:00,83.0,34.0,-100.00,WSW,248,10.0,21.0,17,0.00,,,0.00,1120.000000,,2013-07-30 22:43:00,
2013-07-30 16:12:00,83.0,36.0,-100.00,WSW,251,9.0,22.0,19,0.00,,,0.00,1004.000000,,2013-07-30 23:12:00,
2013-07-30 16:22:00,83.0,36.0,-100.00,WSW,251,9.0,22.0,19,0.00,,,0.00,1004.000000,,2013-07-30 23:22:00,
2013-07-30 16:32:00,83.0,36.0,-100.00,WSW,251,9.0,22.0,19,0.00,,,0.00,1004.000000,,2013-07-30 23:32:00,
2013-07-30 16:42:00,83.0,36.0,-100.00,WSW,251,9.0,22.0,19,0.00,,,0.00,1004.000000,,2013-07-30 23:42:00,
2013-07-30 17:22:00,82.0,37.0,-100.00,WSW,239,10.0,21.0,20,0.00,,,0.00,824.000000,,2013-07-31 00:22:00,
2013-07-30 17:32:00,82.0,37.0,-100.00,WSW,239,10.0,21.0,20,0.00,,,0.00,824.000000,,2013-07-31 00:32:00,
2013-07-30 17:43:00,82.0,37.0,-100.00,WSW,239,10.0,21.0,20,0.00,,,0.00,824.000000,,2013-07-31 00:43:00,
2013-07-30 18:22:00,83.0,39.0,-100.00,East,97,6.0,22.0,21,0.00,,,0.00,601.000000,,2013-07-31 01:22:00,
2013-07-30 18:32:00,83.0,39.0,-100.00,East,97,6.0,22.0,21,0.00,,,0.00,601.000000,,2013-07-31 01:32:00,
2013-07-30 18:42:00,83.0,39.0,-100.00,East,97,6.0,22.0,21,0.00,,,0.00,601.000000,,2013-07-31 01:42:00,
2013-07-30 19:12:00,79.0,38.0,-100.00,WSW,241,4.0,17.0,23,0.00,,,0.00,379.000000,,2013-07-31 02:12:00,
2013-07-30 19:22:00,79.0,38.0,-100.00,WSW,241,4.0,17.0,23,0.00,,,0.00,379.000000,,2013-07-31 02:22:00,
2013-07-30 19:32:00,79.0,38.0,-100.00,WSW,241,4.0,17.0,23,0.00,,,0.00,379.000000,,2013-07-31 02:32:00,
2013-07-30 19:42:00,79.0,38.0,-100.00,WSW,241,4.0,17.0,23,0.00,,,0.00,379.000000,,2013-07-31 02:42:00,
2013-07-30 20:22:00,73.0,37.0,-100.00,SSW,212,6.0,16.0,27,0.00,,,0.00,129.000000,,2013-07-31 03:22:00,
2013-07-30 20:32:00,73.0,37.0,-100.00,SSW,212,6.0,16.0,27,0.00,,,0.00,129.000000,,2013-07-31 03:32:00,
2013-07-30 20:42:00,73.0,37.0,-100.00,SSW,212,6.0,16.0,27,0.00,,,0.00,129.000000,,2013-07-31 03:42:00,
2013-07-30 21:12:00,70.0,37.0,-100.00,SW,218,6.0,13.0,30,0.00,,,0.00,7.000000,,2013-07-31 04:12:00,
2013-07-30 21:22:00,70.0,37.0,-100.00,SW,218,6.0,13.0,30,0.00,,,0.00,7.000000,,2013-07-31 04:22:00,
2013-07-30 21:32:00,70.0,37.0,-100.00,SW,218,6.0,13.0,30,0.00,,,0.00,7.000000,,2013-07-31 04:32:00,
2013-07-30 21:42:00,70.0,37.0,-100.00,SW,218,6.0,13.0,30,0.00,,,0.00,7.000000,,2013-07-31 04:42:00,
2013-07-30 22:11:00,68.0,37.0,-100.00,SSW,196,6.0,11.0,32,0.00,,,0.00,0.000000,,2013-07-31 05:11:00,
2013-07-30 22:22:00,68.0,37.0,-100.00,SSW,196,6.0,11.0,32,0.00,,,0.00,0.000000,,2013-07-31 05:22:00,
2013-07-30 22:32:00,68.0,37.0,-100.00,SSW,196,6.0,11.0,32,0.00,,,0.00,0.000000,,2013-07-31 05:32:00,
2013-07-30 22:42:00,68.0,37.0,-100.00,SSW,196,6.0,11.0,32,0.00,,,0.00,0.000000,,2013-07-31 05:42:00,
2013-07-30 23:22:00,69.0,38.0,-100.00,SSW,211,6.0,12.0,32,0.00,,,0.00,0.000000,,2013-07-31 06:22:00,
2013-07-30 23:32:00,69.0,38.0,-100.00,SSW,211,6.0,12.0,32,0.00,,,0.00,0.000000,,2013-07-31 06:32:00,
2013-07-30 23:42:00,69.0,38.0,-100.00,SSW,211,6.0,12.0,32,0.00,,,0.00,0.000000,,2013-07-31 06:42:00,